createdAt,value
2023-01-01T10:42:59.420Z,16.10
2023-01-01T10:45:33.129Z,16.00
2023-01-01T10:51:58.107Z,16.10
2023-01-01T10:58:38.585Z,16.00
2023-01-01T11:01:15.652Z,16.10
2023-01-01T11:04:37.972Z,16.10
2023-01-01T11:07:40.319Z,16.20
2023-01-01T11:10:29.783Z,16.20
2023-01-01T11:13:25.492Z,16.20
2023-01-01T11:16:28.708Z,16.20
2023-01-01T11:19:51.950Z,16.20
2023-01-01T11:22:55.258Z,16.20
2023-01-01T11:33:35.012Z,16.10
2023-01-01T11:36:06.095Z,16.10
2023-01-01T11:38:35.191Z,16.10
2023-01-01T11:41:07.632Z,16.20
2023-01-01T11:43:41.537Z,16.20
2023-01-01T11:46:14.097Z,16.20
2023-01-01T11:48:45.856Z,16.20
2023-01-01T11:51:32.021Z,16.20
2023-01-01T11:54:12.524Z,16.20
2023-01-01T11:56:42.073Z,16.30
2023-01-01T11:59:16.835Z,16.20
2023-01-01T12:01:50.034Z,16.20
2023-01-01T12:04:24.766Z,16.20
2023-01-01T12:06:59.821Z,16.10
2023-01-01T12:09:34.644Z,16.10
2023-01-01T12:12:07.828Z,16.00
2023-01-01T12:14:43.663Z,15.90
2023-01-01T12:17:19.965Z,15.90
2023-01-01T12:20:02.109Z,15.80
2023-01-01T12:22:30.908Z,15.80
2023-01-01T12:25:00.195Z,15.80
2023-01-01T12:27:41.989Z,15.70
2023-01-01T12:30:21.089Z,15.70
2023-01-01T12:33:25.881Z,15.60
2023-01-01T12:36:08.821Z,15.60
2023-01-01T12:39:05.902Z,15.50
2023-01-01T12:41:42.491Z,15.50
2023-01-01T12:44:25.913Z,15.50
2023-01-01T12:47:00.833Z,15.40
2023-01-01T12:49:44.299Z,15.40
2023-01-01T12:52:32.031Z,15.30
2023-01-01T12:55:29.397Z,15.30
2023-01-01T12:58:01.682Z,15.30
2023-01-01T13:00:31.526Z,15.30
2023-01-01T13:03:03.152Z,15.30
2023-01-01T13:05:38.865Z,15.30
2023-01-01T13:08:09.659Z,15.20
2023-01-01T13:10:41.017Z,15.20
2023-01-01T13:13:11.029Z,15.20
2023-01-01T13:15:48.755Z,15.20
2023-01-01T13:18:26.955Z,15.10
2023-01-01T13:20:59.079Z,15.10
2023-01-01T13:23:49.327Z,15.10
2023-01-01T13:26:38.214Z,15.10
2023-01-01T13:29:44.742Z,15.10
2023-01-01T13:32:14.987Z,15.10
2023-01-01T13:35:17.866Z,15.10
2023-01-01T13:37:47.909Z,15.10
2023-01-01T13:40:54.436Z,15.00
2023-01-01T13:43:31.720Z,15.00
2023-01-01T13:46:13.945Z,15.10
2023-01-01T13:49:09.744Z,15.20
2023-01-01T13:52:17.040Z,15.40
2023-01-01T13:55:16.296Z,15.50
2023-01-01T13:58:21.313Z,15.70
2023-01-01T14:01:16.858Z,15.90
2023-01-01T14:03:50.959Z,16.00
2023-01-01T14:06:28.283Z,16.10
2023-01-01T14:09:04.600Z,16.20
2023-01-01T14:11:33.587Z,16.30
2023-01-01T14:14:03.311Z,16.30
2023-01-01T14:16:32.104Z,16.40
2023-01-01T14:19:03.517Z,16.40
2023-01-01T14:21:35.472Z,16.40
2023-01-01T14:24:06.329Z,16.50
2023-01-01T14:26:38.308Z,16.50
2023-01-01T14:29:11.619Z,16.50
2023-01-01T14:31:43.620Z,16.50
2023-01-01T14:34:16.496Z,16.50
2023-01-01T14:36:53.428Z,16.50
2023-01-01T14:39:30.556Z,16.50
2023-01-01T14:42:03.454Z,16.50
2023-01-01T14:44:37.207Z,16.50
2023-01-01T14:47:06.652Z,16.50
2023-01-01T14:49:38.786Z,16.40
2023-01-01T14:52:10.870Z,16.50
2023-01-01T14:54:44.581Z,16.40
2023-01-01T14:57:18.890Z,16.30
2023-01-01T14:59:54.497Z,16.30
2023-01-01T15:02:25.009Z,16.20
2023-01-01T15:04:54.376Z,16.10
2023-01-01T15:07:25.825Z,16.00
2023-01-01T15:09:57.460Z,16.00
2023-01-01T15:12:26.178Z,15.90
2023-01-01T15:14:58.122Z,15.80
2023-01-01T15:17:28.483Z,15.70
2023-01-01T15:20:05.511Z,15.60
2023-01-01T15:22:39.019Z,15.50
2023-01-01T15:25:13.124Z,15.50
2023-01-01T15:27:42.032Z,15.40
2023-01-01T15:30:25.986Z,15.30
2023-01-01T15:32:56.004Z,15.20
2023-01-01T15:35:31.994Z,15.20
2023-01-01T15:38:03.644Z,15.20
2023-01-01T15:40:35.760Z,15.10
2023-01-01T15:43:19.557Z,15.00
2023-01-01T15:46:00.308Z,14.90
2023-01-01T15:48:35.229Z,14.80
2023-01-01T15:51:08.639Z,14.80
2023-01-01T15:53:50.288Z,14.70
2023-01-01T15:56:19.383Z,14.60
2023-01-01T15:58:54.065Z,14.50
2023-01-01T16:01:26.524Z,14.40
2023-01-01T16:04:02.898Z,14.30
2023-01-01T16:06:31.517Z,14.30
2023-01-01T16:09:00.115Z,14.30
2023-01-01T16:11:28.808Z,14.20
2023-01-01T16:13:57.599Z,14.20
2023-01-01T16:16:29.381Z,14.10
2023-01-01T16:18:59.621Z,14.10
2023-01-01T16:21:29.607Z,14.10
2023-01-01T16:23:58.321Z,14.10
2023-01-01T16:26:27.201Z,14.00
2023-01-01T16:28:56.153Z,14.00
2023-01-01T16:31:28.970Z,13.90
2023-01-01T16:34:00.614Z,13.90
2023-01-01T16:36:29.400Z,13.90
2023-01-01T16:38:58.477Z,13.80
2023-01-01T16:41:30.396Z,13.80
2023-01-01T16:43:59.525Z,13.70
2023-01-01T16:46:29.902Z,13.70
2023-01-01T16:48:59.180Z,13.70
2023-01-01T16:51:31.841Z,13.60
2023-01-01T16:54:01.858Z,13.60
2023-01-01T16:56:31.579Z,13.60
2023-01-01T16:59:03.435Z,13.50
2023-01-01T17:01:33.826Z,13.50
2023-01-01T17:04:02.910Z,13.50
2023-01-01T17:06:31.276Z,13.40
2023-01-01T17:09:01.164Z,13.40
2023-01-01T17:11:29.623Z,13.40
2023-01-01T17:13:59.691Z,13.40
2023-01-01T17:16:34.414Z,13.30
2023-01-01T17:19:17.445Z,13.30
2023-01-01T17:21:46.776Z,13.30
2023-01-01T17:24:15.803Z,13.20
2023-01-01T17:26:44.176Z,13.20
2023-01-01T17:29:12.971Z,13.20
2023-01-01T17:31:41.563Z,13.10
2023-01-01T17:34:14.652Z,13.10
2023-01-01T17:36:44.037Z,13.10
2023-01-01T17:39:13.809Z,13.10
2023-01-01T17:41:42.750Z,13.10
2023-01-01T17:44:12.460Z,13.00
2023-01-01T17:46:41.093Z,13.00
2023-01-01T17:49:12.896Z,13.00
2023-01-01T17:51:41.408Z,13.00
2023-01-01T17:54:13.874Z,12.90
2023-01-01T17:56:53.605Z,12.90
2023-01-01T17:59:23.000Z,12.90
2023-01-01T18:01:51.518Z,12.90
2023-01-01T18:04:22.045Z,12.80
2023-01-01T18:06:54.426Z,12.80
2023-01-01T18:09:25.323Z,12.80
2023-01-01T18:11:53.841Z,12.70
2023-01-01T18:14:24.640Z,12.70
2023-01-01T18:16:53.256Z,12.60
2023-01-01T18:19:23.257Z,12.60
2023-01-01T18:21:51.629Z,12.60
2023-01-01T18:24:20.643Z,12.50
2023-01-01T18:26:49.028Z,12.50
2023-01-01T18:29:17.820Z,12.40
2023-01-01T18:31:48.970Z,12.40
2023-01-01T18:34:17.821Z,12.40
2023-01-01T18:36:47.898Z,12.40
2023-01-01T18:39:22.798Z,12.30
2023-01-01T18:42:12.672Z,12.30
2023-01-01T18:44:41.467Z,12.20
2023-01-01T18:47:15.828Z,12.30
2023-01-01T18:49:48.732Z,12.20
2023-01-01T18:52:23.590Z,12.20
2023-01-01T18:55:12.145Z,12.20
2023-01-01T18:57:41.867Z,12.20
2023-01-01T19:00:24.282Z,12.20
2023-01-01T19:03:00.784Z,12.20
2023-01-01T19:05:32.178Z,12.20
2023-01-01T19:08:15.693Z,12.20
2023-01-01T19:10:46.386Z,12.20
2023-01-01T19:13:25.459Z,12.20
2023-01-01T19:15:56.614Z,12.20
2023-01-01T19:18:29.587Z,12.20
2023-01-01T19:21:03.076Z,12.30
2023-01-01T19:23:32.851Z,12.30
2023-01-01T19:26:04.633Z,12.30
2023-01-01T19:28:35.700Z,12.30
2023-01-01T19:31:07.096Z,12.30
2023-01-01T19:33:35.410Z,12.40
2023-01-01T19:36:04.184Z,12.40
2023-01-01T19:38:34.214Z,12.40
2023-01-01T19:41:02.897Z,12.40
2023-01-01T19:43:31.563Z,12.40
2023-01-01T19:46:00.857Z,12.40
2023-01-01T19:48:30.064Z,12.40
2023-01-01T19:50:59.018Z,12.50
2023-01-01T19:53:27.456Z,12.40
2023-01-01T19:55:57.387Z,12.50
2023-01-01T19:58:25.997Z,12.40
2023-01-01T20:00:55.127Z,12.40
2023-01-01T20:06:14.284Z,12.40
2023-01-01T20:08:42.756Z,12.40
2023-01-01T20:11:12.777Z,12.40
2023-01-01T20:13:41.605Z,12.40
2023-01-01T20:16:10.668Z,12.40
2023-01-01T20:18:39.423Z,12.40
2023-01-01T20:21:27.175Z,12.40
2023-01-01T20:23:56.304Z,12.40
2023-01-01T20:26:26.617Z,12.40
2023-01-01T20:29:14.409Z,12.40
2023-01-01T20:31:44.217Z,12.40
2023-01-01T20:34:13.313Z,12.40
2023-01-01T20:37:00.034Z,12.40
2023-01-01T20:39:31.364Z,12.40
2023-01-01T20:42:02.105Z,12.30
2023-01-01T20:44:31.960Z,12.30
2023-01-01T20:47:01.832Z,12.30
2023-01-01T20:49:30.218Z,12.30
2023-01-01T20:51:59.229Z,12.30
2023-01-01T20:54:27.622Z,12.30
2023-01-01T20:56:56.365Z,12.20
2023-01-01T20:59:36.256Z,12.20
2023-01-01T21:02:06.629Z,12.20
2023-01-01T21:04:38.771Z,12.20
2023-01-01T21:07:10.544Z,12.30
2023-01-01T21:09:40.651Z,12.20
2023-01-01T21:12:10.489Z,12.20
2023-01-01T21:14:40.607Z,12.20
2023-01-01T21:17:22.440Z,12.30
2023-01-01T21:19:51.868Z,12.30
2023-01-01T21:22:21.723Z,12.30
2023-01-01T21:24:54.308Z,12.20
2023-01-01T21:27:35.853Z,12.20
2023-01-01T21:30:12.908Z,12.20
2023-01-01T21:32:45.375Z,12.20
2023-01-01T21:35:20.753Z,12.20
2023-01-01T21:37:51.458Z,12.20
2023-01-01T21:40:41.718Z,12.20
2023-01-01T21:43:29.678Z,12.20
2023-01-01T21:46:13.515Z,12.20
2023-01-01T21:48:47.436Z,12.10
2023-01-01T21:51:22.369Z,12.10
2023-01-01T21:53:51.350Z,12.10
2023-01-01T21:56:28.569Z,12.10
2023-01-01T21:59:21.515Z,12.00
2023-01-01T22:01:51.604Z,12.00
2023-01-01T22:04:23.656Z,11.90
2023-01-01T22:06:56.781Z,11.90
2023-01-01T22:09:27.813Z,11.90
2023-01-01T22:12:02.572Z,11.80
2023-01-01T22:14:38.924Z,11.80
2023-01-01T22:17:16.167Z,11.80
2023-01-01T22:19:46.455Z,11.80
2023-01-01T22:22:17.966Z,11.80
2023-01-01T22:24:52.927Z,11.80
2023-01-01T22:27:27.820Z,11.80
2023-01-01T22:29:57.859Z,11.80
2023-01-01T22:32:30.359Z,11.80
2023-01-01T22:35:06.798Z,11.80
2023-01-01T22:37:39.424Z,11.80
2023-01-01T22:40:19.576Z,11.80
2023-01-01T22:42:48.224Z,11.80
2023-01-01T22:45:18.177Z,11.80
2023-01-01T22:47:48.189Z,11.80
2023-01-01T22:50:21.240Z,11.80
2023-01-01T22:52:49.689Z,11.80
2023-01-01T22:55:18.799Z,11.80
2023-01-01T22:57:47.154Z,11.80
2023-01-01T23:00:18.532Z,11.80
2023-01-01T23:02:48.395Z,11.80
2023-01-01T23:05:17.544Z,11.80
2023-01-01T23:07:46.717Z,11.80
2023-01-01T23:10:16.555Z,11.80
2023-01-01T23:12:45.061Z,11.80
2023-01-01T23:15:31.608Z,11.80
2023-01-01T23:18:01.661Z,11.80
2023-01-01T23:20:31.828Z,11.80
2023-01-01T23:23:00.492Z,11.70
2023-01-01T23:25:29.955Z,11.70
2023-01-01T23:27:58.578Z,11.70
2023-01-01T23:30:27.639Z,11.70
2023-01-01T23:32:56.332Z,11.70
2023-01-01T23:35:26.542Z,11.70
2023-01-01T23:37:55.533Z,11.70
2023-01-01T23:40:24.174Z,11.70
2023-01-01T23:42:52.820Z,11.70
2023-01-01T23:45:21.615Z,11.70
2023-01-01T23:47:50.074Z,11.70
2023-01-01T23:50:19.367Z,11.80
2023-01-01T23:52:49.520Z,11.70
2023-01-01T23:55:18.273Z,11.70
2023-01-01T23:57:46.808Z,11.70
